Time;durP1;ratioP1;P1;durP2;ratioP2;P2;SDS_P1;SDS_P2;PMS_P1;PMS_P2;Temp;Humidity;BMP_temperature;BMP_pressure;BME280_temperature;BME280_humidity;BME280_pressure;Samples;Min_cycle;Max_cycle;Signal;HPM_P1;HPM_P2
2023/02/24 00:01:23;;;;;;;50.00;21.40;;;;;;;3.13;42.57;101356.94;107930;1289;21991;-60
2023/02/24 00:03:51;;;;;;;46.20;19.40;;;;;;;3.14;42.61;101352.99;107978;1289;21998;-61
2023/02/24 00:06:17;;;;;;;42.10;19.30;;;;;;;3.14;42.63;101347.43;108024;1288;22026;-61
2023/02/24 00:08:46;;;;;;;41.50;18.60;;;;;;;3.12;42.62;101343.39;108003;1289;22002;-62
2023/02/24 00:11:13;;;;;;;34.10;17.80;;;;;;;3.10;42.68;101336.20;107310;1289;1004166;-61
2023/02/24 00:13:39;;;;;;;38.30;18.20;;;;;;;3.08;42.73;101338.58;107316;1289;1002241;-62
2023/02/24 00:16:05;;;;;;;30.30;15.50;;;;;;;3.05;42.60;101332.75;107956;1289;21995;-61
2023/02/24 00:18:32;;;;;;;26.30;13.70;;;;;;;3.04;42.66;101330.63;107982;1289;21994;-61
2023/02/24 00:21:11;;;;;;;21.10;12.60;;;;;;;3.03;42.78;101326.61;107848;1290;22027;-60
2023/02/24 00:23:39;;;;;;;23.50;12.10;;;;;;;3.01;42.84;101321.52;107950;1289;22776;-60
2023/02/24 00:26:06;;;;;;;23.30;12.60;;;;;;;2.99;42.80;101320.91;107948;1289;22009;-60
2023/02/24 00:28:32;;;;;;;21.00;11.60;;;;;;;2.98;42.80;101309.80;107918;1289;22003;-62
2023/02/24 00:31:05;;;;;;;23.70;11.80;;;;;;;3.00;43.00;101306.23;108001;1289;22460;-60
2023/02/24 00:33:32;;;;;;;20.10;10.30;;;;;;;3.02;43.16;101303.67;107831;1289;22004;-60
2023/02/24 00:36:05;;;;;;;17.50;10.00;;;;;;;3.05;43.56;101300.99;107832;1289;21994;-62
2023/02/24 00:38:34;;;;;;;17.80;9.20;;;;;;;3.11;43.90;101300.70;107933;1289;21979;-61
2023/02/24 00:41:14;;;;;;;18.80;10.30;;;;;;;3.24;44.12;101295.38;107907;1289;21995;-61
2023/02/24 00:43:48;;;;;;;15.00;8.90;;;;;;;3.37;44.56;101289.88;107964;1289;21999;-60
2023/02/24 00:46:20;;;;;;;18.50;9.70;;;;;;;3.49;44.56;101284.36;107200;1289;1002367;-61
2023/02/24 00:48:48;;;;;;;16.90;9.70;;;;;;;3.58;44.31;101275.11;107172;1289;1003352;-61
2023/02/24 00:51:15;;;;;;;15.50;8.90;;;;;;;3.62;44.28;101269.47;107906;1289;22035;-62
2023/02/24 00:53:43;;;;;;;17.80;9.80;;;;;;;3.66;44.34;101267.52;107875;1289;22056;-61
2023/02/24 00:56:12;;;;;;;15.30;9.10;;;;;;;3.74;44.54;101265.15;107867;1289;21993;-62
2023/02/24 00:58:43;;;;;;;17.40;9.50;;;;;;;3.83;44.59;101264.73;107827;1289;21993;-61
2023/02/24 01:01:19;;;;;;;15.50;9.10;;;;;;;3.90;44.53;101263.70;107925;1289;21995;-61
2023/02/24 01:03:47;;;;;;;18.40;10.30;;;;;;;3.94;44.62;101253.75;107181;1289;1002248;-60
2023/02/24 01:06:13;;;;;;;19.60;9.70;;;;;;;3.98;44.66;101250.40;107900;1289;21985;-60
2023/02/24 01:08:46;;;;;;;18.00;9.50;;;;;;;4.03;44.93;101246.37;107862;1289;24385;-60
2023/02/24 01:14:05;;;;;;;17.90;9.30;;;;;;;4.11;44.75;101241.40;107973;1289;22024;-62
2023/02/24 01:16:33;;;;;;;14.60;8.70;;;;;;;4.13;44.83;101241.11;108088;1289;22002;-61
2023/02/24 01:19:00;;;;;;;14.90;9.20;;;;;;;4.16;44.83;101235.80;108037;1289;22040;-60
2023/02/24 01:21:26;;;;;;;16.10;9.00;;;;;;;4.18;45.04;101227.00;107945;1289;22028;-60
2023/02/24 01:23:52;;;;;;;16.80;9.30;;;;;;;4.20;44.99;101220.96;107861;1290;22001;-62
2023/02/24 01:26:18;;;;;;;14.70;8.70;;;;;;;4.21;45.38;101219.94;107860;1289;22008;-61
2023/02/24 01:28:47;;;;;;;15.60;8.30;;;;;;;4.22;45.42;101221.01;107864;1289;22023;-60
2023/02/24 01:31:16;;;;;;;14.30;8.30;;;;;;;4.25;45.21;101214.84;107242;1289;1002818;-62
2023/02/24 01:33:44;;;;;;;13.30;7.60;;;;;;;4.30;45.56;101207.17;107998;1289;21995;-62
2023/02/24 01:36:15;;;;;;;16.40;9.00;;;;;;;4.35;46.00;101204.86;107942;1289;22007;-61
2023/02/24 01:38:41;;;;;;;14.00;8.50;;;;;;;4.44;46.15;101209.08;107879;1289;23647;-62
2023/02/24 01:41:26;;;;;;;13.10;8.30;;;;;;;4.51;45.67;101207.54;107972;1289;22043;-61
2023/02/24 01:44:01;;;;;;;13.30;8.10;;;;;;;4.56;46.08;101201.56;107920;1289;22033;-61
2023/02/24 01:46:28;;;;;;;16.50;8.30;;;;;;;4.60;46.47;101202.55;107887;1289;21960;-61
2023/02/24 01:48:57;;;;;;;12.30;7.40;;;;;;;4.68;46.40;101202.91;107946;1289;22005;-62
2023/02/24 01:51:24;;;;;;;11.90;8.10;;;;;;;4.76;46.31;101195.63;107883;1289;22013;-60
2023/02/24 01:53:50;;;;;;;14.00;9.10;;;;;;;4.84;46.02;101196.00;107998;1286;23282;-60
2023/02/24 01:56:16;;;;;;;17.40;9.70;;;;;;;4.88;46.32;101198.52;108024;1289;21996;-60
2023/02/24 01:58:41;;;;;;;15.80;8.30;;;;;;;4.91;46.47;101192.69;108097;1289;21996;-61
2023/02/24 02:01:08;;;;;;;13.00;7.60;;;;;;;4.96;46.53;101190.73;107883;1289;22001;-61
2023/02/24 02:03:38;;;;;;;12.20;7.50;;;;;;;5.01;46.40;101188.23;107990;1289;22949;-63
2023/02/24 02:06:09;;;;;;;12.50;8.00;;;;;;;5.04;46.63;101186.57;107907;1289;22085;-62
2023/02/24 02:08:41;;;;;;;16.60;8.60;;;;;;;5.06;46.46;101183.15;107983;1289;22230;-63
2023/02/24 02:11:11;;;;;;;13.50;7.80;;;;;;;5.08;46.53;101177.44;108035;1289;21987;-62
2023/02/24 02:13:42;;;;;;;14.40;8.20;;;;;;;5.13;46.60;101177.89;108068;1289;22030;-61
2023/02/24 02:16:21;;;;;;;14.60;8.70;;;;;;;5.16;46.82;101172.58;107999;1285;23058;-61
2023/02/24 02:19:20;;;;;;;13.70;7.90;;;;;;;5.17;47.27;101173.83;107892;1289;22006;-62
2023/02/24 02:22:12;;;;;;;14.00;8.70;;;;;;;5.24;46.97;101175.70;108017;1289;22014;-62
2023/02/24 02:24:42;;;;;;;13.00;8.10;;;;;;;5.31;47.20;101169.59;107918;1289;21995;-61
2023/02/24 02:27:32;;;;;;;12.30;7.60;;;;;;;5.37;47.39;101166.06;108016;1289;21998;-62
2023/02/24 02:30:18;;;;;;;12.80;7.70;;;;;;;5.44;47.39;101165.52;107059;1289;1002380;-62
2023/02/24 02:33:12;;;;;;;14.60;8.50;;;;;;;5.50;47.48;101162.52;107995;1289;21959;-61
2023/02/24 02:35:49;;;;;;;16.70;8.90;;;;;;;5.55;47.70;101158.79;108012;1289;21994;-62
2023/02/24 02:38:24;;;;;;;14.90;8.70;;;;;;;5.60;47.93;101158.55;108009;1289;21992;-61
2023/02/24 02:40:59;;;;;;;15.50;8.20;;;;;;;5.63;47.83;101155.14;107869;1289;22004;-64
2023/02/24 02:43:38;;;;;;;16.40;9.50;;;;;;;5.66;48.00;101154.32;108019;1289;22000;-61
2023/02/24 02:46:07;;;;;;;13.80;8.00;;;;;;;5.70;48.00;101150.04;108021;1289;22072;-61
2023/02/24 02:48:36;;;;;;;13.30;8.90;;;;;;;5.71;48.44;101138.95;108094;1289;22449;-64
2023/02/24 02:51:06;;;;;;;;;;;;;;;5.69;49.15;101142.36;108014;1289;22016;-61
2023/02/24 02:53:45;;;;;;;15.30;8.40;;;;;;;5.77;48.48;101139.20;107905;1289;21971;-61
2023/02/24 02:56:15;;;;;;;14.80;8.70;;;;;;;5.83;48.20;101138.27;107892;1289;22008;-64
2023/02/24 02:58:45;;;;;;;15.40;9.10;;;;;;;5.87;48.24;101136.80;107142;1289;1002375;-61
2023/02/24 03:01:11;;;;;;;13.90;8.30;;;;;;;5.93;48.08;101133.41;107880;1289;21982;-64
2023/02/24 03:03:43;;;;;;;14.00;7.90;;;;;;;5.95;48.41;101132.06;107939;1289;21992;-62
2023/02/24 03:06:23;;;;;;;14.90;8.00;;;;;;;5.98;48.17;101129.70;107833;1289;22054;-61
2023/02/24 03:08:59;;;;;;;16.50;8.50;;;;;;;6.01;47.95;101128.89;107994;1289;21990;-64
2023/02/24 03:11:25;;;;;;;15.90;9.40;;;;;;;6.04;48.29;101124.42;107876;1286;22000;-63
2023/02/24 03:13:55;;;;;;;12.00;8.50;;;;;;;6.08;47.94;101120.50;107821;1289;22107;-63
2023/02/24 03:16:22;;;;;;;13.50;8.20;;;;;;;6.12;47.97;101115.68;107823;1289;22562;-62
2023/02/24 03:18:53;;;;;;;15.90;9.40;;;;;;;6.14;47.94;101112.75;107872;1289;22001;-63
2023/02/24 03:21:38;;;;;;;15.50;8.40;;;;;;;6.16;47.90;101117.67;107907;1289;21999;-61
2023/02/24 03:24:05;;;;;;;16.40;8.90;;;;;;;6.18;47.95;101111.96;107898;1289;23735;-61
2023/02/24 03:26:41;;;;;;;13.30;8.00;;;;;;;6.20;47.83;101106.92;108032;1288;21988;-64
2023/02/24 03:29:22;;;;;;;15.70;8.40;;;;;;;6.23;47.88;101109.24;108028;1289;22026;-61
2023/02/24 03:31:50;;;;;;;13.20;8.00;;;;;;;6.25;47.51;101104.91;107861;1289;22032;-62
2023/02/24 03:34:42;;;;;;;14.20;8.00;;;;;;;6.28;47.87;101096.94;107906;1289;21996;-63
2023/02/24 03:37:09;;;;;;;17.50;8.60;;;;;;;6.29;47.69;101091.73;107831;1286;24326;-62
2023/02/24 03:39:35;;;;;;;16.00;8.90;;;;;;;6.26;48.09;101087.84;107076;1289;1003061;-62
2023/02/24 03:42:06;;;;;;;14.10;8.00;;;;;;;6.27;47.99;101082.30;107847;1289;22031;-64
2023/02/24 03:44:32;;;;;;;14.10;8.40;;;;;;;6.31;48.09;101080.61;107913;1289;23063;-61
2023/02/24 03:47:02;;;;;;;11.90;7.90;;;;;;;6.33;47.85;101074.91;107884;1289;21996;-61
2023/02/24 03:49:28;;;;;;;12.90;6.90;;;;;;;6.34;48.01;101067.60;107814;1286;22011;-62
2023/02/24 03:52:07;;;;;;;13.80;7.70;;;;;;;6.35;48.20;101062.20;107868;1289;21995;-61
2023/02/24 03:54:52;;;;;;;13.20;7.20;;;;;;;6.37;48.09;101057.19;107842;1289;24402;-63
2023/02/24 03:57:53;;;;;;;11.60;6.90;;;;;;;6.41;48.33;101053.23;107856;1289;22015;-64
2023/02/24 04:00:33;;;;;;;11.90;7.00;;;;;;;6.46;48.41;101051.90;107982;1289;21992;-63
2023/02/24 04:03:34;;;;;;;11.60;6.70;;;;;;;6.53;48.11;101044.52;107882;1289;21994;-65
2023/02/24 04:06:10;;;;;;;15.80;9.10;;;;;;;6.57;48.34;101038.83;107717;1289;23689;-61
2023/02/24 04:08:53;;;;;;;11.00;7.10;;;;;;;6.59;48.29;101035.20;107141;1289;1002107;-64
2023/02/24 04:11:27;;;;;;;10.00;6.10;;;;;;;6.61;48.44;101032.78;107854;1289;22457;-61
2023/02/24 04:14:00;;;;;;;15.90;6.80;;;;;;;6.61;48.73;101028.25;107914;1286;22034;-64
2023/02/24 04:16:38;;;;;;;11.10;6.50;;;;;;;6.62;48.91;101024.59;107779;1289;21992;-61
2023/02/24 04:19:12;;;;;;;21.00;8.00;;;;;;;6.64;48.76;101021.66;107843;1289;22001;-64
2023/02/24 04:21:39;;;;;;;16.30;7.10;;;;;;;6.68;48.40;101018.06;107718;1289;21990;-61
2023/02/24 04:24:14;;;;;;;14.40;7.20;;;;;;;6.67;48.86;101014.02;107836;1289;22017;-63
2023/02/24 04:26:43;;;;;;;10.60;5.90;;;;;;;6.71;48.76;101008.50;107974;1286;21994;-64
2023/02/24 04:29:12;;;;;;;16.10;7.40;;;;;;;6.74;48.82;101005.05;107214;1288;1006408;-65
2023/02/24 04:31:39;;;;;;;12.20;6.50;;;;;;;6.72;49.49;100998.05;107610;1289;409321;-62
2023/02/24 04:34:08;;;;;;;10.20;6.40;;;;;;;6.76;49.13;100996.19;107656;1289;22001;-62
2023/02/24 04:36:34;;;;;;;10.60;6.10;;;;;;;6.80;49.30;100996.60;107891;1289;22029;-62
2023/02/24 04:39:00;;;;;;;10.00;5.80;;;;;;;6.80;49.42;100995.20;107873;1289;22041;-64
2023/02/24 04:41:27;;;;;;;10.70;6.00;;;;;;;6.85;49.29;100991.25;107984;1277;22014;-62
2023/02/24 04:43:53;;;;;;;10.40;5.60;;;;;;;6.89;49.25;100994.25;107861;1289;22007;-62
2023/02/24 04:46:19;;;;;;;11.10;6.90;;;;;;;6.90;49.38;100993.92;107740;1289;23062;-62
2023/02/24 04:48:44;;;;;;;13.30;6.00;;;;;;;6.94;49.37;100993.62;107138;1289;1003002;-65
2023/02/24 04:51:11;;;;;;;13.40;5.50;;;;;;;6.97;49.73;100992.79;107157;1286;1002346;-62
2023/02/24 04:53:36;;;;;;;10.70;6.30;;;;;;;7.01;49.72;100989.88;107921;1289;23314;-65
2023/02/24 04:56:09;;;;;;;12.30;6.20;;;;;;;7.05;50.01;100981.91;107962;1286;22018;-64
2023/02/24 04:58:40;;;;;;;12.20;6.70;;;;;;;7.07;49.98;100978.77;107938;1289;21993;-63
2023/02/24 05:01:09;;;;;;;9.70;6.10;;;;;;;7.07;50.22;100980.52;107937;1289;22121;-63
2023/02/24 05:03:36;;;;;;;8.10;4.40;;;;;;;7.07;50.20;100973.36;107933;1289;21990;-64
2023/02/24 05:06:01;;;;;;;11.30;6.30;;;;;;;7.06;50.57;100960.80;107918;1276;22284;-63
2023/02/24 05:08:28;;;;;;;11.20;6.30;;;;;;;7.07;50.81;100965.34;107849;1289;22033;-64
2023/02/24 05:10:59;;;;;;;11.30;6.60;;;;;;;7.08;50.95;100968.14;107908;1289;22460;-64
2023/02/24 05:13:27;;;;;;;11.10;6.40;;;;;;;7.11;50.98;100964.52;107904;1287;21987;-62
2023/02/24 05:16:04;;;;;;;11.80;6.40;;;;;;;7.11;51.77;100965.20;107893;1289;22249;-63
2023/02/24 05:18:36;;;;;;;;;;;;;;;7.16;51.96;100964.55;107858;1289;21969;-63
2023/02/24 05:23:54;;;;;;;15.80;6.10;;;;;;;7.28;51.37;100951.08;107868;1289;22035;-63
2023/02/24 05:26:42;;;;;;;12.20;6.40;;;;;;;7.33;51.65;100943.79;107941;1286;22009;-62
2023/02/24 05:29:13;;;;;;;10.60;5.70;;;;;;;7.36;52.03;100936.84;107906;1285;21998;-62
2023/02/24 05:31:40;;;;;;;11.80;6.00;;;;;;;7.35;51.69;100939.27;107806;1288;21992;-64
2023/02/24 05:34:06;;;;;;;10.90;5.30;;;;;;;7.35;51.97;100941.02;107874;1289;22003;-64
2023/02/24 05:36:34;;;;;;;9.70;5.90;;;;;;;7.38;51.94;100939.84;107889;1288;22002;-62
2023/02/24 05:39:06;;;;;;;9.10;5.00;;;;;;;7.42;52.09;100937.80;107895;1289;22747;-64
2023/02/24 05:41:37;;;;;;;10.80;5.90;;;;;;;7.43;52.96;100934.64;107941;1286;22031;-62
2023/02/24 05:44:10;;;;;;;11.50;6.30;;;;;;;7.50;53.31;100929.83;107073;1288;1002987;-64
2023/02/24 05:46:40;;;;;;;12.20;6.00;;;;;;;7.55;53.42;100926.90;107864;1289;21995;-64
2023/02/24 05:49:13;;;;;;;9.70;5.30;;;;;;;7.64;53.15;100922.61;107864;1289;21948;-64
2023/02/24 05:51:42;;;;;;;10.50;5.20;;;;;;;7.71;53.14;100913.75;107944;1289;22300;-64
2023/02/24 05:54:10;;;;;;;10.60;5.60;;;;;;;7.75;53.56;100909.08;107909;1289;23058;-61
2023/02/24 05:56:38;;;;;;;10.10;6.30;;;;;;;7.79;53.90;100903.33;107231;1289;1002292;-62
2023/02/24 05:59:10;;;;;;;7.60;3.80;;;;;;;7.90;53.21;100907.09;107148;1289;1002510;-62
2023/02/24 06:01:40;;;;;;;11.00;5.30;;;;;;;7.96;53.64;100903.11;107776;1289;21992;-62
2023/02/24 06:04:07;;;;;;;11.30;4.40;;;;;;;8.01;53.88;100900.34;107909;1289;23640;-64
2023/02/24 06:06:36;;;;;;;14.00;5.50;;;;;;;8.10;53.74;100896.55;107968;1286;22122;-63
2023/02/24 06:09:09;;;;;;;9.60;5.10;;;;;;;8.21;53.37;100894.86;107163;1289;1002452;-60
2023/02/24 06:11:36;;;;;;;14.40;5.60;;;;;;;8.23;53.70;100890.16;107926;1289;22073;-64
2023/02/24 06:14:06;;;;;;;10.00;5.20;;;;;;;8.28;53.89;100890.36;107930;1289;23687;-63
2023/02/24 06:16:45;;;;;;;10.50;5.40;;;;;;;8.25;54.47;100888.59;107906;1289;21992;-66
2023/02/24 06:19:11;;;;;;;11.80;5.20;;;;;;;8.28;54.78;100890.88;107914;1289;23148;-62
2023/02/24 06:21:39;;;;;;;11.80;5.00;;;;;;;8.34;54.70;100887.08;107876;1289;22175;-62
2023/02/24 06:24:13;;;;;;;;;;;;;;;8.43;54.47;100887.46;107916;1289;21969;-62
2023/02/24 06:26:42;;;;;;;12.90;5.30;;;;;;;8.51;54.08;100880.71;107912;1289;22093;-61
2023/02/24 06:29:15;;;;;;;11.50;4.90;;;;;;;8.55;54.26;100881.79;107903;1289;21992;-66
2023/02/24 06:31:41;;;;;;;8.90;4.80;;;;;;;8.59;54.72;100879.35;107898;1289;22046;-67
2023/02/24 06:34:11;;;;;;;8.90;5.10;;;;;;;8.60;54.97;100878.13;107840;1289;21988;-63
2023/02/24 06:36:37;;;;;;;10.10;5.40;;;;;;;8.68;54.32;100870.80;107806;1289;21990;-62
2023/02/24 06:39:07;;;;;;;11.00;5.40;;;;;;;8.75;54.35;100868.20;107883;1289;21993;-62
2023/02/24 06:41:34;;;;;;;13.50;5.90;;;;;;;8.76;54.70;100862.09;107890;1286;22030;-62
2023/02/24 06:44:01;;;;;;;12.20;6.70;;;;;;;8.80;54.77;100859.48;107879;1289;22016;-66
2023/02/24 06:46:27;;;;;;;11.20;6.70;;;;;;;8.85;54.82;100854.05;107848;1289;22003;-66
2023/02/24 06:48:53;;;;;;;12.30;7.10;;;;;;;8.76;55.67;100850.19;107836;1276;22476;-67
2023/02/24 06:51:19;;;;;;;11.50;6.50;;;;;;;8.66;56.52;100851.55;107842;1289;22011;-65
2023/02/24 06:53:44;;;;;;;13.90;6.80;;;;;;;8.74;56.02;100849.48;107836;1289;22732;-66
2023/02/24 06:56:18;;;;;;;12.40;5.60;;;;;;;8.78;56.29;100840.75;107963;1286;21992;-62
2023/02/24 06:58:51;;;;;;;9.90;5.60;;;;;;;8.95;56.03;100834.65;107911;1289;22005;-65
2023/02/24 07:01:24;;;;;;;12.30;6.60;;;;;;;9.09;55.82;100829.41;107920;1289;21988;-65
2023/02/24 07:06:37;;;;;;;10.60;5.80;;;;;;;9.14;56.88;100824.70;107874;1289;21982;-63
2023/02/24 07:09:04;;;;;;;10.30;5.80;;;;;;;9.24;56.41;100815.94;107905;1289;21998;-62
2023/02/24 07:11:32;;;;;;;11.70;5.60;;;;;;;9.29;56.35;100812.27;107925;1289;22018;-62
2023/02/24 07:13:59;;;;;;;11.20;5.80;;;;;;;9.34;56.25;100810.86;107856;1289;22001;-62
2023/02/24 07:16:29;;;;;;;15.20;6.10;;;;;;;9.37;56.23;100807.18;107857;1285;21995;-65
2023/02/24 07:18:58;;;;;;;11.50;6.40;;;;;;;9.49;55.73;100800.52;107857;1289;21999;-63
2023/02/24 07:21:25;;;;;;;12.40;7.10;;;;;;;9.56;55.78;100798.95;107905;1289;21998;-66
2023/02/24 07:23:55;;;;;;;13.40;7.70;;;;;;;9.64;55.90;100796.13;107892;1289;21993;-63
2023/02/24 07:26:24;;;;;;;11.60;8.20;;;;;;;9.73;55.42;100795.40;107865;1289;21992;-63
2023/02/24 07:28:53;;;;;;;10.50;7.30;;;;;;;9.82;55.40;100794.86;107863;1285;22002;-62
2023/02/24 07:31:21;;;;;;;13.20;6.20;;;;;;;9.88;55.33;100792.92;107922;1288;24421;-66
2023/02/24 07:33:47;;;;;;;14.10;7.40;;;;;;;9.96;54.91;100791.31;107918;1289;24047;-64
2023/02/24 07:36:15;;;;;;;12.50;6.70;;;;;;;10.00;55.02;100786.39;107889;1289;22003;-62
2023/02/24 07:38:42;;;;;;;14.40;6.60;;;;;;;10.04;55.24;100784.11;107976;1289;22012;-63
2023/02/24 07:41:14;;;;;;;13.80;6.20;;;;;;;10.09;54.92;100780.41;107894;1289;21985;-62
2023/02/24 07:43:40;;;;;;;22.10;8.30;;;;;;;10.15;54.90;100775.12;107894;1289;22074;-63
2023/02/24 07:46:10;;;;;;;11.80;5.20;;;;;;;10.19;55.00;100774.75;107889;1289;21998;-62
2023/02/24 07:48:38;;;;;;;10.10;5.80;;;;;;;10.27;54.59;100774.36;107909;1289;22023;-62
2023/02/24 07:51:09;;;;;;;9.10;4.60;;;;;;;10.32;54.72;100775.05;107905;1289;21994;-62
2023/02/24 07:53:35;;;;;;;11.70;4.40;;;;;;;10.33;54.73;100772.59;107828;1289;21995;-62
2023/02/24 07:56:12;;;;;;;14.20;4.60;;;;;;;10.40;54.77;100780.45;107877;1289;21998;-62
2023/02/24 07:58:50;;;;;;;7.20;3.50;;;;;;;10.45;54.71;100775.52;107873;1290;22938;-63
2023/02/24 08:01:21;;;;;;;7.50;3.30;;;;;;;10.48;54.73;100772.19;107846;1289;22003;-64
2023/02/24 08:03:54;;;;;;;10.70;3.60;;;;;;;10.45;55.07;100771.33;107886;1289;23510;-62
2023/02/24 08:06:30;;;;;;;10.70;4.00;;;;;;;10.53;54.74;100767.95;107876;1289;21990;-62
2023/02/24 08:08:57;;;;;;;6.50;3.40;;;;;;;10.56;54.89;100768.27;107912;1289;21999;-63
2023/02/24 08:11:33;;;;;;;11.90;3.60;;;;;;;10.50;55.31;100768.13;107612;1290;21991;-63
2023/02/24 08:14:01;;;;;;;15.70;6.80;;;;;;;10.56;55.11;100763.36;107880;1289;22119;-62
2023/02/24 08:16:41;;;;;;;11.70;7.40;;;;;;;10.64;54.75;100763.66;107899;1289;22000;-63
2023/02/24 08:19:13;;;;;;;12.80;6.50;;;;;;;10.67;54.85;100760.67;107117;1289;1002931;-63
2023/02/24 08:21:40;;;;;;;10.30;5.50;;;;;;;10.63;55.12;100762.10;107935;1289;23616;-66
2023/02/24 08:24:16;;;;;;;11.80;3.80;;;;;;;10.68;54.67;100761.53;107984;1289;22011;-63
2023/02/24 08:27:04;;;;;;;9.40;4.50;;;;;;;10.68;54.99;100757.67;107916;1289;21992;-62
2023/02/24 08:29:56;;;;;;;15.20;8.30;;;;;;;10.68;54.81;100753.80;108035;1275;21989;-67
2023/02/24 08:32:37;;;;;;;13.60;7.50;;;;;;;10.67;54.90;100753.65;107239;1275;1002573;-62
2023/02/24 08:35:14;;;;;;;12.00;4.80;;;;;;;10.73;54.45;100758.16;107974;1289;21991;-66
2023/02/24 08:37:47;;;;;;;7.00;4.10;;;;;;;10.74;54.33;100749.04;107861;1286;22003;-62
2023/02/24 08:40:36;;;;;;;11.90;4.60;;;;;;;10.66;54.40;100753.30;107864;1289;21998;-66
2023/02/24 08:43:16;;;;;;;8.10;4.20;;;;;;;10.62;54.61;100758.77;107949;1289;21993;-65
2023/02/24 08:46:24;;;;;;;6.80;3.70;;;;;;;10.50;54.70;100757.77;107934;1289;22005;-62
2023/02/24 08:48:58;;;;;;;9.30;3.30;;;;;;;10.42;54.87;100755.36;107483;1294;22003;-65
2023/02/24 08:51:27;;;;;;;8.80;3.90;;;;;;;10.57;54.30;100753.52;107535;1294;22030;-65
2023/02/24 08:53:58;;;;;;;8.90;4.50;;;;;;;10.66;53.66;100754.34;107785;1289;21995;-61
2023/02/24 08:56:26;;;;;;;11.60;3.90;;;;;;;10.59;53.70;100750.01;107843;1288;21993;-66
2023/02/24 08:58:56;;;;;;;8.50;3.20;;;;;;;10.52;54.30;100749.17;107911;1276;22004;-65
2023/02/24 09:01:53;;;;;;;11.60;3.80;;;;;;;10.51;54.30;100745.50;107881;1289;21997;-61
2023/02/24 09:04:18;;;;;;;12.30;5.10;;;;;;;10.66;53.93;100738.90;107862;1289;22007;-62
2023/02/24 09:06:56;;;;;;;7.80;3.40;;;;;;;10.72;53.79;100735.52;107847;1289;22086;-65
2023/02/24 09:09:22;;;;;;;11.30;4.30;;;;;;;10.63;54.31;100734.70;107907;1285;21992;-62
2023/02/24 09:11:56;;;;;;;;;;;;;;;10.73;54.13;100732.18;107958;1289;21978;-66
2023/02/24 09:14:35;;;;;;;8.80;3.60;;;;;;;10.81;53.86;100723.35;107888;1289;22034;-65
2023/02/24 09:17:01;;;;;;;8.70;3.80;;;;;;;10.74;54.22;100720.78;107925;1289;21999;-66
2023/02/24 09:22:13;;;;;;;8.80;3.90;;;;;;;10.72;54.48;100712.71;107841;1289;21990;-65
2023/02/24 09:24:41;;;;;;;9.20;3.60;;;;;;;10.84;53.98;100701.21;107881;1289;23062;-66
2023/02/24 09:27:07;;;;;;;9.40;3.40;;;;;;;10.88;53.78;100705.38;107885;1289;21989;-62
2023/02/24 09:29:32;;;;;;;7.70;3.60;;;;;;;10.84;53.58;100704.72;107904;1289;21995;-63
2023/02/24 09:32:04;;;;;;;9.10;4.40;;;;;;;10.77;53.57;100704.07;107877;1289;22006;-62
2023/02/24 09:34:30;;;;;;;12.40;3.50;;;;;;;10.87;53.43;100693.98;107944;1289;23168;-65
2023/02/24 09:37:02;;;;;;;9.50;3.70;;;;;;;10.82;53.80;100696.30;107881;1289;21995;-62
2023/02/24 09:44:54;;;;;;;13.50;4.00;;;;;;;10.89;53.29;100683.60;107737;1289;22458;-63
2023/02/24 09:47:38;;;;;;;11.20;3.70;;;;;;;10.80;53.81;100679.82;107904;1289;23762;-65
2023/02/24 09:50:12;;;;;;;9.00;3.70;;;;;;;10.88;53.78;100670.27;107923;1289;22017;-62
2023/02/24 09:52:42;;;;;;;8.50;3.70;;;;;;;11.07;53.17;100669.41;107894;1289;22012;-66
2023/02/24 09:55:23;;;;;;;11.90;4.90;;;;;;;11.01;53.12;100661.73;107897;1289;21998;-62
2023/02/24 10:01:20;;;;;;;9.00;3.60;;;;;;;11.09;53.25;100657.61;107563;1288;22649;-67
2023/02/24 10:04:09;;;;;;;10.10;3.90;;;;;;;11.15;53.38;100650.70;107864;1282;21996;-66
2023/02/24 10:06:39;;;;;;;17.70;4.30;;;;;;;11.13;53.92;100646.49;107850;1289;22003;-62
2023/02/24 10:09:25;;;;;;;12.80;4.20;;;;;;;10.95;54.66;100639.13;107944;1289;22004;-67
2023/02/24 10:11:54;;;;;;;10.50;3.60;;;;;;;11.10;54.04;100629.52;107746;1281;21979;-66
2023/02/24 10:14:28;;;;;;;7.80;3.30;;;;;;;11.11;53.85;100620.71;107906;1289;22000;-64
2023/02/24 10:19:41;;;;;;;9.10;4.20;;;;;;;11.22;53.51;100617.98;107891;1289;22002;-63
2023/02/24 10:22:28;;;;;;;9.80;4.70;;;;;;;11.33;53.04;100608.88;107904;1289;22012;-66
2023/02/24 10:25:13;;;;;;;8.90;4.10;;;;;;;11.23;52.73;100604.08;107881;1289;22032;-66
2023/02/24 10:28:01;;;;;;;12.30;4.80;;;;;;;11.25;52.55;100590.00;107927;1289;22002;-66
2023/02/24 10:31:02;;;;;;;7.30;4.10;;;;;;;11.30;52.70;100584.67;107848;1289;22000;-63
2023/02/24 10:33:37;;;;;;;9.60;3.60;;;;;;;11.14;52.55;100579.41;107898;1285;22003;-66
2023/02/24 10:36:07;;;;;;;9.20;3.90;;;;;;;11.16;52.74;100572.36;107839;1289;22179;-63
2023/02/24 10:38:34;;;;;;;9.70;3.90;;;;;;;11.22;52.50;100561.05;107904;1289;23624;-66
2023/02/24 10:41:05;;;;;;;9.30;4.50;;;;;;;11.35;52.12;100561.59;107883;1289;22711;-63
2023/02/24 10:43:32;;;;;;;12.00;4.50;;;;;;;11.29;52.08;100555.52;107908;1289;21997;-67
2023/02/24 10:46:15;;;;;;;7.30;4.00;;;;;;;11.36;52.01;100543.50;107939;1289;22670;-67
2023/02/24 10:48:49;;;;;;;8.50;4.10;;;;;;;11.40;51.88;100536.59;107850;1289;21994;-63
2023/02/24 10:51:30;;;;;;;9.30;4.40;;;;;;;11.32;52.28;100532.83;107825;1289;22031;-66
2023/02/24 10:57:06;;;;;;;11.20;4.30;;;;;;;11.42;51.88;100533.39;107349;1294;22020;-66
2023/02/24 11:03:05;;;;;;;10.40;3.80;;;;;;;11.55;51.43;100510.55;107866;1289;21993;-66
2023/02/24 11:05:43;;;;;;;7.50;4.10;;;;;;;11.50;51.45;100507.81;107864;1289;22035;-66
2023/02/24 11:11:24;;;;;;;9.60;3.70;;;;;;;11.68;51.46;100494.55;107845;1289;22014;-63
2023/02/24 11:19:32;;;;;;;7.60;3.50;;;;;;;11.62;51.03;100475.84;107897;1289;22006;-63
2023/02/24 11:21:58;;;;;;;11.20;3.90;;;;;;;11.68;50.87;100467.31;107874;1289;21994;-63
2023/02/24 11:24:24;;;;;;;13.00;4.00;;;;;;;11.74;50.74;100469.14;107876;1289;21986;-66
2023/02/24 11:26:50;;;;;;;13.60;3.90;;;;;;;11.70;50.53;100468.66;107919;1289;22471;-63
2023/02/24 11:29:55;;;;;;;8.10;3.80;;;;;;;11.77;50.70;100466.64;107854;1289;21997;-63
2023/02/24 11:32:36;;;;;;;9.00;3.80;;;;;;;11.66;50.93;100469.27;107913;1289;21995;-65
2023/02/24 11:35:10;;;;;;;11.60;4.70;;;;;;;11.59;50.81;100469.20;107872;1289;21995;-62
2023/02/24 11:37:57;;;;;;;7.30;4.00;;;;;;;11.61;50.86;100463.72;107886;1289;22841;-66
2023/02/24 11:40:25;;;;;;;9.10;3.60;;;;;;;11.57;51.00;100462.19;107867;1289;22003;-65
2023/02/24 11:43:00;;;;;;;9.20;3.90;;;;;;;11.46;51.49;100464.99;107786;1289;21991;-63
2023/02/24 11:45:34;;;;;;;8.10;4.20;;;;;;;11.50;51.62;100456.14;107829;1289;22466;-64
2023/02/24 11:48:04;;;;;;;8.90;4.50;;;;;;;11.51;51.59;100452.42;107884;1285;21993;-63
2023/02/24 11:50:50;;;;;;;10.90;4.60;;;;;;;11.63;51.72;100450.33;108000;1285;21996;-64
2023/02/24 11:53:22;;;;;;;9.10;3.80;;;;;;;11.59;51.52;100444.77;107826;1289;22009;-63
2023/02/24 11:55:55;;;;;;;12.30;4.20;;;;;;;11.51;51.49;100438.21;108079;1289;21992;-63
2023/02/24 11:58:38;;;;;;;13.80;4.60;;;;;;;11.50;51.28;100426.80;107848;1289;23085;-62
2023/02/24 12:01:14;;;;;;;9.00;3.90;;;;;;;11.35;51.60;100426.84;107937;1289;22007;-65
2023/02/24 12:03:52;;;;;;;11.10;3.90;;;;;;;11.36;51.62;100423.14;107846;1289;22002;-66
2023/02/24 12:06:24;;;;;;;10.80;3.80;;;;;;;11.36;51.92;100414.71;107947;1289;22028;-63
2023/02/24 12:08:52;;;;;;;9.10;4.40;;;;;;;11.27;52.35;100416.78;107944;1289;21999;-66
2023/02/24 12:11:34;;;;;;;9.70;3.60;;;;;;;11.16;52.35;100411.49;107931;1286;22762;-63
2023/02/24 12:14:31;;;;;;;10.50;4.30;;;;;;;11.21;52.32;100408.80;107893;1289;23889;-66
2023/02/24 12:17:16;;;;;;;9.20;3.30;;;;;;;11.25;52.15;100393.27;107671;1288;21996;-63